aviador You're here:

LFRU Decoded Metar

MORLAIX in FRANCE
Report Time2018-02-20 13:30:00
UTC Time2018-02-20 13:52:39
Flight Rules mvfr MVFR
Wind020° at 15 kt
W.Decomp.*RWY 04: 14.3 kt HW 4.6 kt LCW
RWY 34: 11.1 kt HW 10.0 kt RCW
RWY 09: 5.6 kt HW 13.9 kt LCW
W.Rank020° ranks 26
Current wind is above 020° avg. (7.3)
Visibility9999 m
Phenomena:N/A
Clouds:Broken 023 Hf
Expected CloudBase > 2,000 ft AGL from Temp-Dew spread
Ceiling2,300 ft
Temp10°C (ISA -4)
Dew Point05°C (71% RH)
AAT3.5°C
QNH1024 hPa
Density Alt-502 ft
Elevation282 ft
Report Wrong Elevation
Raw Report
METAR LFRU 201330Z AUTO 02015KT 340V050 9999 BKN023 10/05 Q1024=

Extra information for LFRU:More info

Metar Taf Metar & Taf Last 4 Metars F.Rules Stats Wind Profile Meteogram Temp Stats Airport Information Weather charts Add Link Nearby VenuesMetar ALERT Operation Metar Decoded Social comments